Terminal Aerodrome Forecast
Issued by NWS Twin Cities, MN

Home | Current Version | Previous Version | Graphics & Text | Print | Product List | Glossary On
Versions: 1 2 3 4 5 6 7 8 9 10 11 12 13 14 15
172
FTUS43 KMPX 142031 AAA
TAFSTC
TAF AMD
KSTC 142031Z 1421/1518 15012KT 5SM -SN BKN022 OVC040
      TEMPO 1421/1424 2SM -SN BKN017 OVC022
     FM150000 15008KT 6SM BR BKN015 OVC035
     FM150400 17005KT 5SM BR OVC012
     FM150900 21004KT 4SM BR OVC008=

USA.gov is the U.S. government's official web portal to all federal, state and local government web resources and services.